Time;durP1;ratioP1;P1;durP2;ratioP2;P2;SDS_P1;SDS_P2;PMS_P1;PMS_P2;Temp;Humidity;BMP_temperature;BMP_pressure;BME280_temperature;BME280_humidity;BME280_pressure;Samples;Min_cycle;Max_cycle;Signal;HPM_P1;HPM_P2
2022/01/30 00:01:03;;;;;;;16.88;2.88;;;;;;;;;;4973006;28;20416;-55
2022/01/30 00:03:29;;;;;;;12.63;3.22;;;;;;;;;;4972787;28;20035;-57
2022/01/30 00:05:55;;;;;;;14.73;3.28;;;;;;;;;;4972820;28;20093;-56
2022/01/30 00:08:21;;;;;;;13.00;2.65;;;;;;;;;;4972783;28;20027;-55
2022/01/30 00:10:54;;;;;;;10.50;2.40;;;;;;;;;;4972546;28;20105;-58
2022/01/30 00:13:22;;;;;;;13.30;3.03;;;;;;;;;;4973003;28;20035;-57
2022/01/30 00:15:51;;;;;;;9.68;2.35;;;;;;;;;;4971406;28;20023;-59
2022/01/30 00:20:59;;;;;;;10.15;2.75;;;;;;;;;;4973805;28;20045;-55
2022/01/30 00:23:27;;;;;;;11.50;3.05;;;;;;;;;;4973585;28;20038;-56
2022/01/30 00:25:55;;;;;;;11.13;2.55;;;;;;;;;;4973449;28;20436;-57
2022/01/30 00:28:24;;;;;;;15.60;2.88;;;;;;;;;;4973329;28;20090;-57
2022/01/30 00:30:51;;;;;;;15.45;2.92;;;;;;;;;;4974522;28;20082;-61
2022/01/30 00:33:17;;;;;;;12.23;2.75;;;;;;;;;;4976197;28;20023;-58
2022/01/30 00:35:43;;;;;;;13.50;3.08;;;;;;;;;;4959281;28;20031;-57
2022/01/30 00:38:15;;;;;;;9.23;2.50;;;;;;;;;;4977178;28;20023;-56
2022/01/30 00:40:41;;;;;;;12.82;2.95;;;;;;;;;;4977297;28;20031;-55
2022/01/30 00:43:07;;;;;;;10.05;2.40;;;;;;;;;;4976847;28;20494;-56
2022/01/30 00:45:33;;;;;;;8.38;2.90;;;;;;;;;;4976702;28;20027;-57
2022/01/30 00:47:58;;;;;;;10.68;2.70;;;;;;;;;;4976583;28;20035;-55
2022/01/30 00:50:24;;;;;;;11.55;2.85;;;;;;;;;;4975904;28;20029;-56
2022/01/30 00:52:54;;;;;;;12.50;2.72;;;;;;;;;;4976397;28;20058;-57
2022/01/30 00:55:24;;;;;;;9.93;2.85;;;;;;;;;;4976477;28;20146;-57
2022/01/30 00:57:50;;;;;;;12.43;2.42;;;;;;;;;;4976585;28;20081;-57
2022/01/30 01:00:16;;;;;;;13.98;2.60;;;;;;;;;;4959045;28;20121;-61
2022/01/30 01:02:42;;;;;;;12.13;2.67;;;;;;;;;;4976758;28;20039;-55
2022/01/30 01:05:09;;;;;;;8.43;2.45;;;;;;;;;;4976628;28;20034;-60
2022/01/30 01:07:39;;;;;;;16.75;3.20;;;;;;;;;;4968854;28;20047;-63
2022/01/30 01:23:49;;;;;;;11.93;2.63;;;;;;;;;;4976444;28;20689;-57
2022/01/30 01:26:06;;;;;;;9.68;2.50;;;;;;;;;;4974116;28;20146;-52
2022/01/30 01:28:32;;;;;;;12.45;2.72;;;;;;;;;;4974976;28;20766;-54
2022/01/30 01:30:58;;;;;;;11.40;2.85;;;;;;;;;;4976005;28;20038;-59
2022/01/30 01:33:29;;;;;;;11.40;2.35;;;;;;;;;;4976075;28;20090;-55
2022/01/30 01:35:55;;;;;;;8.68;2.65;;;;;;;;;;4976142;28;20015;-56
2022/01/30 01:38:21;;;;;;;10.52;2.60;;;;;;;;;;4976112;28;20077;-59
2022/01/30 01:40:52;;;;;;;9.02;2.95;;;;;;;;;;4975745;28;20019;-60
2022/01/30 01:43:19;;;;;;;10.50;2.20;;;;;;;;;;4976157;28;20018;-58
2022/01/30 01:45:47;;;;;;;8.00;2.85;;;;;;;;;;4976077;28;20138;-57
2022/01/30 01:48:14;;;;;;;7.20;2.35;;;;;;;;;;4975972;28;20081;-56
2022/01/30 01:50:44;;;;;;;8.60;2.40;;;;;;;;;;4975962;28;20401;-56
2022/01/30 01:53:14;;;;;;;6.80;2.35;;;;;;;;;;4970653;28;20077;-59
2022/01/30 01:55:41;;;;;;;6.80;2.30;;;;;;;;;;4975833;28;20042;-58
2022/01/30 01:58:08;;;;;;;7.38;2.00;;;;;;;;;;4975708;28;20023;-58
2022/01/30 02:00:34;;;;;;;8.95;2.45;;;;;;;;;;4975788;28;20038;-55
2022/01/30 02:03:00;;;;;;;6.85;2.00;;;;;;;;;;4975588;28;20054;-56
2022/01/30 02:05:28;;;;;;;9.18;2.47;;;;;;;;;;4976006;28;20109;-57
2022/01/30 02:27:19;;;;;;;7.85;2.22;;;;;;;;;;4975550;28;20513;-57
2022/01/30 02:29:46;;;;;;;7.88;2.38;;;;;;;;;;4975455;28;20042;-61
2022/01/30 02:32:12;;;;;;;6.90;1.90;;;;;;;;;;4974992;28;20116;-57
2022/01/30 02:34:38;;;;;;;8.85;2.17;;;;;;;;;;4974759;28;20023;-65
2022/01/30 02:37:05;;;;;;;5.90;2.13;;;;;;;;;;4975412;28;20053;-58
2022/01/30 02:39:31;;;;;;;8.05;2.38;;;;;;;;;;4975023;28;20097;-56
2022/01/30 02:41:57;;;;;;;7.07;2.03;;;;;;;;;;4975152;28;20101;-54
2022/01/30 02:44:29;;;;;;;7.45;1.80;;;;;;;;;;4974749;28;20031;-61
2022/01/30 02:47:00;;;;;;;9.68;2.38;;;;;;;;;;4954031;28;20023;-59
2022/01/30 02:49:40;;;;;;;7.85;2.03;;;;;;;;;;4957584;28;20069;-56
2022/01/30 02:52:08;;;;;;;6.30;2.15;;;;;;;;;;4974662;28;20018;-58
2022/01/30 02:54:34;;;;;;;8.55;2.38;;;;;;;;;;4973859;28;20106;-55
2022/01/30 02:57:00;;;;;;;5.90;1.98;;;;;;;;;;4957649;28;20031;-59
2022/01/30 02:59:27;;;;;;;6.47;1.85;;;;;;;;;;4974872;28;20029;-55
2022/01/30 03:01:53;;;;;;;7.63;1.98;;;;;;;;;;4974724;28;20053;-58
2022/01/30 03:04:19;;;;;;;3.75;1.60;;;;;;;;;;4974064;28;20050;-54
2022/01/30 03:06:46;;;;;;;5.55;1.70;;;;;;;;;;4974666;28;20023;-51
2022/01/30 03:09:12;;;;;;;6.80;2.00;;;;;;;;;;4974416;28;20031;-55
2022/01/30 03:11:38;;;;;;;8.25;2.28;;;;;;;;;;4971716;28;20494;-62
2022/01/30 03:14:05;;;;;;;5.07;1.77;;;;;;;;;;4974312;28;20030;-57
2022/01/30 03:16:31;;;;;;;7.65;1.98;;;;;;;;;;4974167;28;20106;-54
2022/01/30 03:18:57;;;;;;;8.07;1.95;;;;;;;;;;4974021;28;20078;-56
2022/01/30 03:21:23;;;;;;;6.63;1.92;;;;;;;;;;4956853;28;20070;-56
2022/01/30 03:23:49;;;;;;;6.25;1.55;;;;;;;;;;4973892;28;20493;-55
2022/01/30 03:26:15;;;;;;;6.30;1.70;;;;;;;;;;4974326;28;20027;-59
2022/01/30 03:28:44;;;;;;;7.65;1.80;;;;;;;;;;4973785;28;20511;-60
2022/01/30 03:31:12;;;;;;;6.55;1.80;;;;;;;;;;4973013;28;20031;-57
2022/01/30 03:33:39;;;;;;;6.28;1.75;;;;;;;;;;4973633;28;20505;-60
2022/01/30 03:36:05;;;;;;;5.55;1.58;;;;;;;;;;4974107;28;20052;-58
2022/01/30 03:38:31;;;;;;;5.78;1.85;;;;;;;;;;4974052;28;20030;-56
2022/01/30 03:40:57;;;;;;;5.60;1.58;;;;;;;;;;4973655;28;20027;-56
2022/01/30 03:43:23;;;;;;;5.93;1.85;;;;;;;;;;4973708;28;20138;-59
2022/01/30 03:45:49;;;;;;;5.80;2.00;;;;;;;;;;4972994;28;20122;-55
2022/01/30 03:48:16;;;;;;;10.77;2.20;;;;;;;;;;4974289;28;20026;-56
2022/01/30 03:50:42;;;;;;;6.00;1.80;;;;;;;;;;4973761;28;20390;-57
2022/01/30 03:53:09;;;;;;;6.18;1.48;;;;;;;;;;4973540;28;20034;-59
2022/01/30 03:55:35;;;;;;;6.43;1.80;;;;;;;;;;4973743;28;20031;-58
2022/01/30 03:58:01;;;;;;;10.98;1.90;;;;;;;;;;4973697;28;20058;-58
2022/01/30 04:00:27;;;;;;;4.40;1.50;;;;;;;;;;4972488;28;20130;-58
2022/01/30 04:02:54;;;;;;;7.63;1.40;;;;;;;;;;4973326;28;20031;-57
2022/01/30 04:05:20;;;;;;;8.10;1.92;;;;;;;;;;4973553;28;20482;-57
2022/01/30 04:07:46;;;;;;;5.30;1.45;;;;;;;;;;4973434;28;20030;-58
2022/01/30 04:10:13;;;;;;;7.25;2.00;;;;;;;;;;4974165;28;20069;-53
2022/01/30 04:12:39;;;;;;;5.82;1.40;;;;;;;;;;4973394;28;20379;-62
2022/01/30 04:15:06;;;;;;;6.15;1.77;;;;;;;;;;4956406;28;20034;-54
2022/01/30 04:17:32;;;;;;;3.75;1.38;;;;;;;;;;4972062;28;20122;-55
2022/01/30 04:19:58;;;;;;;4.75;1.48;;;;;;;;;;4973362;28;20031;-60
2022/01/30 04:22:24;;;;;;;5.05;1.73;;;;;;;;;;4973550;28;20023;-59
2022/01/30 04:24:50;;;;;;;5.65;1.40;;;;;;;;;;4955443;28;20038;-58
2022/01/30 04:27:15;;;;;;;5.90;1.60;;;;;;;;;;4973264;28;20746;-56
2022/01/30 04:29:42;;;;;;;2.97;1.25;;;;;;;;;;4973226;28;20034;-54
2022/01/30 04:32:08;;;;;;;3.20;1.33;;;;;;;;;;4973000;28;20101;-55
2022/01/30 04:34:34;;;;;;;4.32;1.30;;;;;;;;;;4973091;28;20019;-58
2022/01/30 04:37:03;;;;;;;4.25;1.40;;;;;;;;;;4973107;28;20110;-56
2022/01/30 04:39:50;;;;;;;3.78;1.30;;;;;;;;;;4973020;28;20077;-59
2022/01/30 04:54:29;;;;;;;7.47;1.38;;;;;;;;;;4973213;28;20438;-66
2022/01/30 05:01:36;;;;;;;10.13;1.75;;;;;;;;;;4973268;28;20047;-59
2022/01/30 05:09:19;;;;;;;3.63;1.38;;;;;;;;;;4992264;28;20041;-57
2022/01/30 05:11:45;;;;;;;5.85;1.40;;;;;;;;;;4975348;28;20061;-56
2022/01/30 05:14:13;;;;;;;4.55;1.20;;;;;;;;;;4972831;28;20062;-57
2022/01/30 05:16:39;;;;;;;3.53;1.50;;;;;;;;;;4973780;28;20023;-62
2022/01/30 05:19:05;;;;;;;4.88;1.50;;;;;;;;;;4975697;28;20055;-58
2022/01/30 05:21:32;;;;;;;4.35;1.48;;;;;;;;;;4976684;28;20033;-59
2022/01/30 05:23:58;;;;;;;6.53;1.75;;;;;;;;;;4976624;28;20038;-60
2022/01/30 05:26:25;;;;;;;7.25;1.80;;;;;;;;;;4976328;28;20038;-58
2022/01/30 05:28:51;;;;;;;7.72;1.58;;;;;;;;;;4976216;28;20038;-57
2022/01/30 05:31:17;;;;;;;6.03;1.52;;;;;;;;;;4976124;28;20023;-58
2022/01/30 05:33:44;;;;;;;4.65;1.55;;;;;;;;;;4969790;28;20079;-57
2022/01/30 05:36:10;;;;;;;5.03;1.30;;;;;;;;;;4981921;28;20023;-55
2022/01/30 05:38:36;;;;;;;6.30;1.50;;;;;;;;;;4976268;28;20053;-55
2022/01/30 05:41:03;;;;;;;5.30;1.55;;;;;;;;;;4965006;28;20031;-57
2022/01/30 05:43:31;;;;;;;16.05;1.60;;;;;;;;;;4970131;28;20081;-59
2022/01/30 05:46:09;;;;;;;14.10;1.80;;;;;;;;;;4965917;28;20467;-61
2022/01/30 05:48:35;;;;;;;20.17;2.10;;;;;;;;;;4982253;28;20134;-58
2022/01/30 05:51:01;;;;;;;18.38;1.67;;;;;;;;;;4978733;28;20085;-59
2022/01/30 05:53:27;;;;;;;15.88;1.52;;;;;;;;;;4987362;28;20077;-62
2022/01/30 05:55:53;;;;;;;8.43;1.60;;;;;;;;;;4988139;28;20022;-59
2022/01/30 05:58:19;;;;;;;7.15;1.80;;;;;;;;;;4968743;28;20429;-59
2022/01/30 06:00:45;;;;;;;11.85;1.60;;;;;;;;;;4982701;28;20031;-63
2022/01/30 06:03:11;;;;;;;13.38;1.65;;;;;;;;;;4981653;28;20031;-59
2022/01/30 06:05:38;;;;;;;8.82;1.70;;;;;;;;;;4981543;28;20042;-63
2022/01/30 06:08:12;;;;;;;5.65;1.55;;;;;;;;;;4985661;28;20046;-63
2022/01/30 06:10:38;;;;;;;8.52;1.70;;;;;;;;;;4984615;28;20114;-60
2022/01/30 06:13:04;;;;;;;6.75;1.73;;;;;;;;;;4984184;28;20177;-60
2022/01/30 06:15:30;;;;;;;5.53;1.70;;;;;;;;;;4983801;28;20050;-62
2022/01/30 06:17:56;;;;;;;7.93;2.08;;;;;;;;;;4978398;28;20465;-63
2022/01/30 06:20:22;;;;;;;6.97;1.90;;;;;;;;;;4972379;28;20505;-62
2022/01/30 06:22:48;;;;;;;12.57;2.17;;;;;;;;;;4967544;28;20050;-63
2022/01/30 06:25:14;;;;;;;10.57;2.22;;;;;;;;;;4982919;28;20031;-59
2022/01/30 06:27:40;;;;;;;9.48;1.90;;;;;;;;;;4975085;28;20517;-60
2022/01/30 06:30:07;;;;;;;7.78;1.88;;;;;;;;;;4984861;28;20034;-62
2022/01/30 06:32:33;;;;;;;7.22;2.10;;;;;;;;;;4984991;28;20030;-60
2022/01/30 06:34:59;;;;;;;10.00;1.80;;;;;;;;;;4978283;28;20109;-60
2022/01/30 06:37:26;;;;;;;8.65;1.80;;;;;;;;;;4984120;28;20038;-61
2022/01/30 06:39:52;;;;;;;10.93;1.70;;;;;;;;;;4961501;28;20058;-58
2022/01/30 06:42:18;;;;;;;7.40;1.92;;;;;;;;;;4938257;29;20032;-62
2022/01/30 06:44:45;;;;;;;6.75;1.55;;;;;;;;;;4955889;28;20151;-59
2022/01/30 06:47:12;;;;;;;10.73;1.95;;;;;;;;;;4955930;28;20034;-59
2022/01/30 06:49:38;;;;;;;7.20;2.13;;;;;;;;;;4938356;29;20495;-63
2022/01/30 06:52:06;;;;;;;12.77;2.65;;;;;;;;;;4955602;29;20027;-60
2022/01/30 06:54:32;;;;;;;9.85;2.40;;;;;;;;;;4946022;28;20405;-60
2022/01/30 06:56:58;;;;;;;10.65;2.25;;;;;;;;;;4975093;28;20030;-59
2022/01/30 06:59:24;;;;;;;10.35;2.33;;;;;;;;;;4974645;28;20403;-62
2022/01/30 07:01:52;;;;;;;7.80;2.10;;;;;;;;;;4974611;28;20066;-59
2022/01/30 07:04:19;;;;;;;9.52;1.95;;;;;;;;;;4974444;28;20053;-62
2022/01/30 07:06:45;;;;;;;8.68;1.98;;;;;;;;;;4974575;28;20015;-60
2022/01/30 07:09:12;;;;;;;8.52;2.00;;;;;;;;;;4974585;28;20085;-58
2022/01/30 07:11:37;;;;;;;8.57;2.28;;;;;;;;;;4953524;28;20098;-60
2022/01/30 07:14:04;;;;;;;8.43;1.98;;;;;;;;;;4974522;28;20039;-59
2022/01/30 07:16:30;;;;;;;11.13;2.60;;;;;;;;;;4974645;28;20110;-59
2022/01/30 07:18:56;;;;;;;10.68;2.22;;;;;;;;;;4965003;28;20134;-62
2022/01/30 07:21:22;;;;;;;10.98;2.55;;;;;;;;;;4954697;28;20074;-60
2022/01/30 07:23:48;;;;;;;8.23;2.53;;;;;;;;;;4954858;28;20046;-59
2022/01/30 07:26:14;;;;;;;11.68;2.53;;;;;;;;;;4969011;28;20497;-58
2022/01/30 07:28:40;;;;;;;11.13;2.20;;;;;;;;;;4964554;28;20038;-61
2022/01/30 07:31:06;;;;;;;10.20;2.30;;;;;;;;;;4965467;28;20062;-59
2022/01/30 07:33:33;;;;;;;6.40;2.25;;;;;;;;;;4984445;28;20038;-58
2022/01/30 07:36:00;;;;;;;9.18;2.03;;;;;;;;;;4964174;28;20085;-59
2022/01/30 07:38:27;;;;;;;8.38;2.10;;;;;;;;;;4982078;28;20037;-59
2022/01/30 07:40:53;;;;;;;10.05;2.33;;;;;;;;;;4989980;28;20038;-58
2022/01/30 07:43:19;;;;;;;10.05;2.17;;;;;;;;;;4993477;28;20034;-58
2022/01/30 07:45:45;;;;;;;10.60;2.45;;;;;;;;;;4967958;28;20045;-62
2022/01/30 07:48:11;;;;;;;8.52;2.15;;;;;;;;;;4973671;28;20467;-59
2022/01/30 07:50:37;;;;;;;10.38;2.90;;;;;;;;;;4973930;28;20030;-66
2022/01/30 07:53:03;;;;;;;8.05;2.30;;;;;;;;;;4956107;28;20080;-62
2022/01/30 07:55:29;;;;;;;7.72;2.38;;;;;;;;;;4978674;28;20022;-58
2022/01/30 07:57:55;;;;;;;18.13;2.65;;;;;;;;;;4982709;28;20616;-60
2022/01/30 08:00:21;;;;;;;7.00;1.95;;;;;;;;;;4980439;28;20055;-62
2022/01/30 08:02:49;;;;;;;15.80;2.58;;;;;;;;;;4983871;28;20053;-63
2022/01/30 08:05:15;;;;;;;17.63;2.65;;;;;;;;;;4970138;28;20031;-60
2022/01/30 08:07:41;;;;;;;13.73;2.08;;;;;;;;;;4973303;28;20060;-59
2022/01/30 08:10:07;;;;;;;7.00;1.90;;;;;;;;;;4976098;28;20035;-61
2022/01/30 08:12:34;;;;;;;13.23;2.40;;;;;;;;;;4985074;28;20470;-58
2022/01/30 08:15:00;;;;;;;17.33;2.67;;;;;;;;;;4956046;28;20574;-60
2022/01/30 08:17:26;;;;;;;14.27;2.67;;;;;;;;;;4966948;28;20050;-59
2022/01/30 08:19:52;;;;;;;9.35;2.72;;;;;;;;;;4973224;28;20387;-58
2022/01/30 08:22:19;;;;;;;13.00;2.63;;;;;;;;;;4973363;28;20030;-59
2022/01/30 08:24:45;;;;;;;10.77;2.92;;;;;;;;;;4981398;28;20144;-59
2022/01/30 08:27:11;;;;;;;9.48;2.53;;;;;;;;;;4975720;28;20402;-60
2022/01/30 08:29:37;;;;;;;9.82;2.58;;;;;;;;;;4956100;28;20015;-59
2022/01/30 08:32:04;;;;;;;12.65;2.92;;;;;;;;;;4972258;28;20382;-60
2022/01/30 08:34:30;;;;;;;12.20;2.53;;;;;;;;;;4973082;28;20034;-62
2022/01/30 08:36:56;;;;;;;12.40;2.92;;;;;;;;;;4981555;28;20026;-60
2022/01/30 08:39:22;;;;;;;12.30;2.53;;;;;;;;;;4981431;28;20573;-60
2022/01/30 08:41:48;;;;;;;11.90;2.13;;;;;;;;;;4992471;28;20026;-60
2022/01/30 08:44:14;;;;;;;10.10;2.90;;;;;;;;;;4980659;28;20053;-62
2022/01/30 08:46:40;;;;;;;14.07;2.45;;;;;;;;;;4982287;28;20026;-64
2022/01/30 08:49:07;;;;;;;12.13;3.35;;;;;;;;;;4982198;28;20074;-59
2022/01/30 08:51:33;;;;;;;10.98;2.45;;;;;;;;;;4986948;28;20114;-61
2022/01/30 08:53:59;;;;;;;11.85;3.08;;;;;;;;;;4985895;28;20105;-59
2022/01/30 08:56:25;;;;;;;13.02;2.35;;;;;;;;;;4974107;28;20033;-60
2022/01/30 08:58:51;;;;;;;13.45;2.78;;;;;;;;;;4973617;28;20038;-58
2022/01/30 09:01:18;;;;;;;9.05;2.55;;;;;;;;;;4974309;28;20415;-63
2022/01/30 09:03:44;;;;;;;7.78;2.20;;;;;;;;;;4973517;28;20466;-59
2022/01/30 09:06:10;;;;;;;10.65;2.67;;;;;;;;;;4979083;28;20042;-62
2022/01/30 09:08:36;;;;;;;11.27;2.70;;;;;;;;;;4976870;28;20070;-65
2022/01/30 09:11:02;;;;;;;10.65;2.53;;;;;;;;;;4986937;28;20049;-60
2022/01/30 09:13:28;;;;;;;12.98;2.45;;;;;;;;;;4996239;28;20096;-66
2022/01/30 09:15:58;;;;;;;11.80;2.55;;;;;;;;;;4995780;28;20066;-59
2022/01/30 09:18:26;;;;;;;9.98;2.35;;;;;;;;;;4957691;28;20051;-62
2022/01/30 09:20:52;;;;;;;10.10;2.03;;;;;;;;;;4970981;28;20623;-60
2022/01/30 09:23:18;;;;;;;13.95;2.55;;;;;;;;;;4978653;28;20043;-64
2022/01/30 09:25:45;;;;;;;15.85;2.88;;;;;;;;;;4966022;28;20109;-61
2022/01/30 09:28:11;;;;;;;9.13;2.30;;;;;;;;;;4981677;28;20390;-59
2022/01/30 09:30:37;;;;;;;20.13;3.00;;;;;;;;;;4995934;28;20019;-61
2022/01/30 09:33:03;;;;;;;10.85;2.25;;;;;;;;;;4995509;28;20026;-59
2022/01/30 09:35:29;;;;;;;8.57;2.10;;;;;;;;;;4991201;28;20041;-60
2022/01/30 09:37:55;;;;;;;9.73;2.63;;;;;;;;;;4980622;28;20501;-59
2022/01/30 09:40:21;;;;;;;11.10;2.50;;;;;;;;;;4993215;28;20382;-59
2022/01/30 09:42:47;;;;;;;13.75;2.58;;;;;;;;;;4995025;28;20350;-63
2022/01/30 09:45:15;;;;;;;14.18;2.85;;;;;;;;;;4995419;28;20113;-59
2022/01/30 09:47:41;;;;;;;15.07;2.85;;;;;;;;;;4977375;28;20449;-61
2022/01/30 09:50:08;;;;;;;9.70;2.42;;;;;;;;;;4995302;28;20033;-59
2022/01/30 09:52:34;;;;;;;12.20;2.95;;;;;;;;;;4982543;28;20058;-61
2022/01/30 09:55:00;;;;;;;17.73;2.95;;;;;;;;;;4976271;28;20027;-62
2022/01/30 09:57:26;;;;;;;17.48;3.30;;;;;;;;;;4976645;28;20545;-61
2022/01/30 09:59:52;;;;;;;14.07;3.00;;;;;;;;;;4977762;28;20101;-60
2022/01/30 10:02:18;;;;;;;11.13;2.40;;;;;;;;;;4988095;28;20434;-60
2022/01/30 10:04:44;;;;;;;11.05;3.00;;;;;;;;;;4995065;28;20046;-61
2022/01/30 10:07:16;;;;;;;28.13;3.53;;;;;;;;;;4990282;28;20109;-68
2022/01/30 10:09:45;;;;;;;21.10;3.40;;;;;;;;;;4975932;28;20015;-69
2022/01/30 10:12:16;;;;;;;25.92;3.28;;;;;;;;;;4977805;28;20352;-68
2022/01/30 10:15:01;;;;;;;13.95;3.28;;;;;;;;;;4995560;28;20037;-67
2022/01/30 10:17:27;;;;;;;15.98;2.70;;;;;;;;;;4985199;28;20034;-66
2022/01/30 10:20:08;;;;;;;25.48;3.60;;;;;;;;;;4975924;28;20027;-68
2022/01/30 10:22:48;;;;;;;48.33;4.88;;;;;;;;;;4958007;28;20470;-67
2022/01/30 10:25:27;;;;;;;32.22;3.72;;;;;;;;;;4975746;28;20494;-61
2022/01/30 10:28:04;;;;;;;36.92;3.63;;;;;;;;;;4990405;28;20041;-60
2022/01/30 10:30:30;;;;;;;25.67;4.45;;;;;;;;;;4994928;28;20030;-58
2022/01/30 10:32:57;;;;;;;44.35;3.90;;;;;;;;;;4994212;28;20355;-54
2022/01/30 10:35:23;;;;;;;37.53;5.05;;;;;;;;;;4994543;28;20019;-60
2022/01/30 10:37:49;;;;;;;64.65;5.72;;;;;;;;;;4991503;28;20030;-57
2022/01/30 10:40:17;;;;;;;45.95;4.70;;;;;;;;;;4975127;28;20030;-60
2022/01/30 10:42:43;;;;;;;29.92;4.65;;;;;;;;;;4957241;28;20328;-51
2022/01/30 10:45:11;;;;;;;47.67;4.97;;;;;;;;;;4975235;28;20451;-60
2022/01/30 10:47:37;;;;;;;58.70;5.18;;;;;;;;;;4983655;28;20069;-59
2022/01/30 10:50:14;;;;;;;29.73;4.78;;;;;;;;;;4963108;28;20114;-65
2022/01/30 10:52:54;;;;;;;27.00;4.25;;;;;;;;;;4970189;28;20435;-56
2022/01/30 10:55:40;;;;;;;44.92;5.05;;;;;;;;;;4974525;28;20042;-60
2022/01/30 10:58:06;;;;;;;32.33;4.20;;;;;;;;;;4974536;28;20053;-55
2022/01/30 11:00:36;;;;;;;22.95;4.10;;;;;;;;;;4956688;28;20042;-59
2022/01/30 11:03:02;;;;;;;25.30;3.45;;;;;;;;;;4973967;28;20042;-53
2022/01/30 11:05:28;;;;;;;21.23;3.92;;;;;;;;;;4973956;28;20031;-58
2022/01/30 11:07:54;;;;;;;22.77;3.70;;;;;;;;;;4982022;28;20030;-57
2022/01/30 11:10:26;;;;;;;17.52;3.80;;;;;;;;;;4980196;28;20074;-60
2022/01/30 11:13:08;;;;;;;15.98;3.83;;;;;;;;;;4973558;28;20050;-60
2022/01/30 11:15:39;;;;;;;22.40;4.00;;;;;;;;;;4973838;28;20030;-61
2022/01/30 11:18:06;;;;;;;23.65;3.58;;;;;;;;;;4979329;28;20049;-67
2022/01/30 11:20:33;;;;;;;17.13;3.90;;;;;;;;;;4974871;28;20058;-65
2022/01/30 11:23:00;;;;;;;19.75;3.90;;;;;;;;;;4974237;28;20022;-57
2022/01/30 11:25:33;;;;;;;26.13;3.80;;;;;;;;;;4978948;28;20034;-66
2022/01/30 11:28:01;;;;;;;10.15;3.05;;;;;;;;;;4984413;28;20023;-63
2022/01/30 11:30:28;;;;;;;15.40;3.35;;;;;;;;;;4981772;28;20073;-54
2022/01/30 11:32:54;;;;;;;23.08;3.40;;;;;;;;;;4966861;28;20521;-64
2022/01/30 11:35:20;;;;;;;15.65;3.75;;;;;;;;;;4989154;28;20039;-58
2022/01/30 11:37:47;;;;;;;17.95;3.58;;;;;;;;;;4981034;28;20030;-65
2022/01/30 11:40:14;;;;;;;15.23;3.92;;;;;;;;;;4979418;28;20081;-61
2022/01/30 11:42:42;;;;;;;16.17;3.20;;;;;;;;;;4977519;28;20029;-58
2022/01/30 11:45:08;;;;;;;24.48;3.38;;;;;;;;;;4981156;28;20038;-58
2022/01/30 11:47:47;;;;;;;17.27;3.60;;;;;;;;;;4963780;28;20474;-62
2022/01/30 11:50:13;;;;;;;32.17;3.80;;;;;;;;;;4979938;28;20344;-61
2022/01/30 11:52:53;;;;;;;28.58;3.90;;;;;;;;;;4978770;28;20025;-60
2022/01/30 11:55:38;;;;;;;22.75;4.32;;;;;;;;;;4985031;28;20030;-61
2022/01/30 11:58:04;;;;;;;30.50;4.15;;;;;;;;;;4982224;28;20022;-61
2022/01/30 12:00:41;;;;;;;22.85;3.80;;;;;;;;;;4986038;28;20026;-61
2022/01/30 12:03:26;;;;;;;28.30;3.95;;;;;;;;;;4968568;28;20035;-67
2022/01/30 12:05:52;;;;;;;19.88;3.70;;;;;;;;;;4984171;28;20053;-62
2022/01/30 12:08:37;;;;;;;19.58;4.20;;;;;;;;;;4983439;28;20030;-62
2022/01/30 12:11:03;;;;;;;26.83;4.70;;;;;;;;;;4980133;28;20022;-62
2022/01/30 12:13:43;;;;;;;34.17;5.25;;;;;;;;;;4982433;28;20041;-63
2022/01/30 12:16:29;;;;;;;39.17;4.50;;;;;;;;;;4982035;28;20362;-64
2022/01/30 12:18:55;;;;;;;24.75;3.38;;;;;;;;;;4982095;28;20486;-59
2022/01/30 12:21:27;;;;;;;29.23;4.68;;;;;;;;;;4981635;28;20041;-60
2022/01/30 12:23:53;;;;;;;27.63;4.18;;;;;;;;;;4978979;28;20045;-61
2022/01/30 12:26:19;;;;;;;24.65;4.75;;;;;;;;;;4970678;28;20031;-60
2022/01/30 12:29:03;;;;;;;18.88;3.90;;;;;;;;;;4966424;28;21376;-60
2022/01/30 12:31:34;;;;;;;26.40;4.22;;;;;;;;;;4985760;28;20074;-63
2022/01/30 12:34:02;;;;;;;30.88;4.75;;;;;;;;;;4983758;28;20089;-63
2022/01/30 12:36:30;;;;;;;33.25;4.03;;;;;;;;;;4979265;28;20027;-61
2022/01/30 12:38:59;;;;;;;27.80;4.50;;;;;;;;;;4976551;28;20113;-61
2022/01/30 12:41:26;;;;;;;23.70;4.20;;;;;;;;;;4967166;28;20031;-62
2022/01/30 12:43:54;;;;;;;19.70;3.70;;;;;;;;;;4986265;28;20038;-59
2022/01/30 12:46:22;;;;;;;18.52;3.75;;;;;;;;;;4982206;28;20414;-61
2022/01/30 12:49:00;;;;;;;20.35;4.22;;;;;;;;;;4974965;28;20691;-65
2022/01/30 12:51:27;;;;;;;19.20;4.10;;;;;;;;;;4966697;28;20030;-63
2022/01/30 12:53:55;;;;;;;27.95;4.13;;;;;;;;;;4969937;28;20030;-61
2022/01/30 12:56:22;;;;;;;33.15;4.35;;;;;;;;;;4980185;28;20102;-61
2022/01/30 12:58:49;;;;;;;28.98;4.75;;;;;;;;;;4971653;28;20054;-65
2022/01/30 13:01:15;;;;;;;26.40;3.65;;;;;;;;;;4967458;28;20540;-64
2022/01/30 13:03:42;;;;;;;25.98;4.47;;;;;;;;;;4961097;28;20482;-59
2022/01/30 13:06:08;;;;;;;22.38;3.97;;;;;;;;;;4957327;29;20031;-63
2022/01/30 13:08:51;;;;;;;26.67;3.83;;;;;;;;;;4958454;28;20030;-63
2022/01/30 13:11:18;;;;;;;15.05;4.13;;;;;;;;;;4982904;28;20069;-63
2022/01/30 13:13:55;;;;;;;20.52;3.67;;;;;;;;;;4976391;28;20026;-63
2022/01/30 13:16:29;;;;;;;22.42;4.32;;;;;;;;;;4976446;28;20050;-64
2022/01/30 13:18:55;;;;;;;17.05;3.20;;;;;;;;;;4975489;28;20044;-63
2022/01/30 13:21:22;;;;;;;19.15;4.05;;;;;;;;;;4976238;28;20039;-58
2022/01/30 13:23:48;;;;;;;21.70;4.05;;;;;;;;;;4975872;28;20039;-61
2022/01/30 13:26:27;;;;;;;18.40;3.60;;;;;;;;;;4976371;28;20031;-60
2022/01/30 13:28:53;;;;;;;19.75;4.25;;;;;;;;;;4976347;28;20035;-57
2022/01/30 13:31:19;;;;;;;14.50;3.13;;;;;;;;;;4975963;28;20023;-60
2022/01/30 13:33:45;;;;;;;22.80;3.63;;;;;;;;;;4975785;28;20039;-65
2022/01/30 13:36:24;;;;;;;22.77;3.80;;;;;;;;;;4976129;28;20119;-60
2022/01/30 13:38:50;;;;;;;19.80;3.60;;;;;;;;;;4975784;28;20431;-61
2022/01/30 13:41:28;;;;;;;21.63;3.50;;;;;;;;;;4976106;28;20542;-61
2022/01/30 13:44:00;;;;;;;21.75;3.67;;;;;;;;;;4976272;28;20078;-61
2022/01/30 13:49:11;;;;;;;33.10;3.38;;;;;;;;;;4975960;28;20037;-60
2022/01/30 13:51:37;;;;;;;26.15;3.95;;;;;;;;;;4975706;28;20027;-62
2022/01/30 13:56:05;;;;;;;25.98;4.15;;;;;;;;;;5163772;27;20867;-61
2022/01/30 13:58:37;;;;;;;16.17;3.40;;;;;;;;;;5171795;27;20042;-58
2022/01/30 14:01:07;;;;;;;20.35;3.60;;;;;;;;;;5169882;27;20257;-57
2022/01/30 14:03:34;;;;;;;23.88;3.45;;;;;;;;;;5160825;27;20023;-58
2022/01/30 14:06:00;;;;;;;18.08;3.13;;;;;;;;;;5149584;27;20098;-63
2022/01/30 14:08:26;;;;;;;18.77;3.38;;;;;;;;;;5149989;27;20528;-57
2022/01/30 14:11:02;;;;;;;17.38;3.45;;;;;;;;;;5149894;27;20045;-58
2022/01/30 14:13:29;;;;;;;13.80;3.15;;;;;;;;;;5149999;27;20027;-64
2022/01/30 14:16:04;;;;;;;20.55;3.00;;;;;;;;;;5150495;27;20019;-60
2022/01/30 14:18:34;;;;;;;19.70;2.78;;;;;;;;;;5170442;27;20621;-54
2022/01/30 14:21:01;;;;;;;9.93;2.50;;;;;;;;;;5171593;27;20022;-57
2022/01/30 14:23:34;;;;;;;13.07;3.15;;;;;;;;;;5158406;27;20019;-61
2022/01/30 14:26:00;;;;;;;15.20;3.00;;;;;;;;;;5150931;27;20099;-58
2022/01/30 14:28:28;;;;;;;16.15;3.60;;;;;;;;;;5150844;27;20443;-56
2022/01/30 14:31:00;;;;;;;8.43;2.70;;;;;;;;;;5150654;27;20023;-59
2022/01/30 14:33:33;;;;;;;23.75;3.53;;;;;;;;;;5150241;27;20026;-59
2022/01/30 14:36:00;;;;;;;14.48;3.10;;;;;;;;;;5149507;27;20023;-53
2022/01/30 14:38:26;;;;;;;24.38;2.75;;;;;;;;;;5133561;27;20426;-56
2022/01/30 14:40:58;;;;;;;14.20;3.40;;;;;;;;;;5129206;28;20472;-51
2022/01/30 14:43:25;;;;;;;12.65;2.67;;;;;;;;;;5129676;28;20375;-53
2022/01/30 14:45:51;;;;;;;10.93;3.13;;;;;;;;;;5129657;28;20031;-56
2022/01/30 14:48:18;;;;;;;10.75;2.60;;;;;;;;;;5129705;28;20027;-55
2022/01/30 14:50:44;;;;;;;12.77;3.40;;;;;;;;;;5129819;28;20047;-56
2022/01/30 14:53:11;;;;;;;12.95;3.00;;;;;;;;;;5148458;27;20527;-53
2022/01/30 14:55:37;;;;;;;13.90;2.90;;;;;;;;;;5134217;27;20047;-55
2022/01/30 14:58:03;;;;;;;15.93;3.33;;;;;;;;;;5150154;27;20088;-54
2022/01/30 15:00:29;;;;;;;8.93;2.60;;;;;;;;;;5150070;27;20031;-52
2022/01/30 15:02:56;;;;;;;14.40;3.35;;;;;;;;;;5131417;27;20038;-53
2022/01/30 15:05:22;;;;;;;15.60;2.90;;;;;;;;;;5146569;27;20060;-57
2022/01/30 15:07:49;;;;;;;11.98;2.67;;;;;;;;;;5135075;27;20332;-60
2022/01/30 15:10:15;;;;;;;13.05;3.20;;;;;;;;;;5129109;27;20124;-63
2022/01/30 15:12:42;;;;;;;13.60;3.08;;;;;;;;;;5115529;27;20382;-62
2022/01/30 15:15:09;;;;;;;16.33;2.92;;;;;;;;;;5135927;27;20039;-61
2022/01/30 15:17:38;;;;;;;15.00;2.70;;;;;;;;;;5135796;27;20493;-58
2022/01/30 15:20:05;;;;;;;15.38;2.92;;;;;;;;;;5117600;27;20106;-59
2022/01/30 15:22:31;;;;;;;10.93;2.53;;;;;;;;;;5135429;27;20473;-59
2022/01/30 15:24:58;;;;;;;11.45;2.70;;;;;;;;;;5135259;27;20027;-63
2022/01/30 15:27:25;;;;;;;11.50;2.63;;;;;;;;;;5099525;28;20027;-60
2022/01/30 15:29:51;;;;;;;8.02;2.10;;;;;;;;;;5096811;28;20070;-59
2022/01/30 15:32:17;;;;;;;14.73;2.97;;;;;;;;;;5114904;28;20020;-59
2022/01/30 15:34:43;;;;;;;8.90;2.05;;;;;;;;;;5114316;28;20046;-57
2022/01/30 15:37:09;;;;;;;8.45;2.30;;;;;;;;;;5114854;28;20020;-60
2022/01/30 15:39:35;;;;;;;11.95;2.78;;;;;;;;;;5114806;28;20028;-61
2022/01/30 15:42:01;;;;;;;5.78;2.10;;;;;;;;;;5114885;28;20026;-61